Time;durP1;ratioP1;P1;durP2;ratioP2;P2;SDS_P1;SDS_P2;PMS_P1;PMS_P2;Temp;Humidity;BMP_temperature;BMP_pressure;BME280_temperature;BME280_humidity;BME280_pressure;Samples;Min_cycle;Max_cycle;Signal;HPM_P1;HPM_P2
2023/05/12 00:03:05;;;;;;;6.00;5.40;;;14.30;99.90;;;;;;10375962;28;20195;-82
2023/05/12 00:08:08;;;;;;;5.00;4.70;;;14.30;99.90;;;;;;10351538;28;20287;-82
2023/05/12 00:13:10;;;;;;;6.20;5.80;;;14.30;99.90;;;;;;10372968;28;20685;-81
2023/05/12 00:18:12;;;;;;;6.07;5.53;;;14.30;99.90;;;;;;10396545;28;20227;-81
2023/05/12 00:23:16;;;;;;;5.50;5.20;;;14.30;99.90;;;;;;10372219;28;20285;-81
2023/05/12 00:28:19;;;;;;;5.73;5.33;;;14.30;99.90;;;;;;10400350;28;20309;-81
2023/05/12 00:33:21;;;;;;;6.90;6.40;;;14.20;99.90;;;;;;10387630;28;20199;-81
2023/05/12 00:38:24;;;;;;;6.20;5.80;;;14.20;99.90;;;;;;10413412;28;20605;-81
2023/05/12 00:43:27;;;;;;;6.17;5.80;;;14.20;99.90;;;;;;10390892;28;20207;-81
2023/05/12 00:48:29;;;;;;;7.30;6.80;;;14.20;99.90;;;;;;10415214;28;20737;-81
2023/05/12 00:53:32;;;;;;;7.27;6.77;;;14.20;99.90;;;;;;10399906;28;20259;-81
2023/05/12 00:58:34;;;;;;;8.13;7.30;;;14.20;99.90;;;;;;10357204;28;20230;-81
2023/05/12 01:03:37;;;;;;;8.10;7.50;;;14.20;99.90;;;;;;10401247;28;20206;-81
2023/05/12 01:08:43;;;;;;;8.60;7.70;;;14.20;99.90;;;;;;10378587;28;20294;-81
2023/05/12 01:13:45;;;;;;;9.93;9.33;;;14.20;99.90;;;;;;10358402;28;20685;-81
2023/05/12 01:18:52;;;;;;;10.47;9.77;;;14.30;99.90;;;;;;10393501;28;20219;-81
2023/05/12 01:23:59;;;;;;;11.13;10.33;;;14.30;99.90;;;;;;10350512;28;20194;-81
2023/05/12 01:29:06;;;;;;;11.50;10.47;;;14.30;99.90;;;;;;10373513;28;20214;-81
2023/05/12 01:34:08;;;;;;;10.93;10.03;;;14.30;99.90;;;;;;10381569;28;20205;-81
2023/05/12 01:39:11;;;;;;;11.33;10.43;;;14.30;99.90;;;;;;10367204;28;20753;-81
2023/05/12 01:44:14;;;;;;;11.87;11.07;;;14.30;99.90;;;;;;10379366;28;20204;-81
2023/05/12 01:49:17;;;;;;;11.60;10.70;;;14.30;99.90;;;;;;10346515;28;20225;-81
2023/05/12 01:54:21;;;;;;;12.27;11.40;;;14.40;99.90;;;;;;10394166;28;20191;-81
2023/05/12 01:59:24;;;;;;;12.00;10.90;;;14.40;99.90;;;;;;10365137;28;20222;-81
2023/05/12 02:04:27;;;;;;;12.00;11.10;;;14.40;99.90;;;;;;10396621;28;20571;-81
2023/05/12 02:09:33;;;;;;;11.53;10.53;;;14.40;99.90;;;;;;10389006;28;20214;-81
2023/05/12 02:14:38;;;;;;;12.97;11.90;;;14.30;99.90;;;;;;10362717;28;20643;-81
2023/05/12 02:19:40;;;;;;;11.83;10.93;;;14.30;99.90;;;;;;10380165;28;20192;-81
2023/05/12 02:24:43;;;;;;;12.37;11.37;;;14.30;99.90;;;;;;10365785;28;20214;-81
2023/05/12 02:29:47;;;;;;;12.77;11.83;;;14.30;99.90;;;;;;10368402;28;20233;-81
2023/05/12 02:34:50;;;;;;;14.20;12.97;;;14.30;99.90;;;;;;10389082;28;20582;-81
2023/05/12 02:39:52;;;;;;;14.07;13.07;;;14.30;99.90;;;;;;10400209;28;20203;-81
2023/05/12 02:44:56;;;;;;;13.70;12.60;;;14.30;99.90;;;;;;10358513;28;20219;-81
2023/05/12 02:49:58;;;;;;;12.23;11.43;;;14.30;99.90;;;;;;10385280;28;20282;-81
2023/05/12 02:55:01;;;;;;;14.27;13.17;;;14.30;99.90;;;;;;10363410;28;20292;-81
2023/05/12 03:00:06;;;;;;;12.20;11.30;;;14.30;99.90;;;;;;10403360;28;20245;-81
2023/05/12 03:05:10;;;;;;;15.20;12.40;;;14.20;99.90;;;;;;10371580;28;20703;-81
2023/05/12 03:10:12;;;;;;;13.43;12.40;;;14.20;99.90;;;;;;10387592;28;20197;-81
2023/05/12 03:15:16;;;;;;;13.03;12.03;;;14.20;99.90;;;;;;10370005;28;20298;-81
2023/05/12 03:20:18;;;;;;;14.30;13.20;;;14.20;99.90;;;;;;10422719;28;20198;-81
2023/05/12 03:25:21;;;;;;;13.80;12.80;;;14.20;99.90;;;;;;10351826;28;20215;-81
2023/05/12 03:30:24;;;;;;;15.53;13.93;;;14.20;99.90;;;;;;10372027;28;20199;-81
2023/05/12 03:35:26;;;;;;;16.10;14.80;;;14.20;99.90;;;;;;10406071;28;20210;-81
2023/05/12 03:40:29;;;;;;;15.90;14.70;;;14.20;99.90;;;;;;10365868;28;20202;-79
2023/05/12 03:45:32;;;;;;;15.00;13.90;;;14.10;99.90;;;;;;10381876;28;20235;-80
2023/05/12 03:50:34;;;;;;;16.10;14.70;;;14.10;99.90;;;;;;10416345;28;20233;-79
2023/05/12 03:55:36;;;;;;;15.70;14.40;;;14.10;99.90;;;;;;10384647;28;20250;-80
2023/05/12 04:00:40;;;;;;;16.17;14.97;;;14.10;99.90;;;;;;10357068;28;20209;-80
2023/05/12 04:05:43;;;;;;;15.87;14.67;;;14.10;99.90;;;;;;10371024;28;20238;-80
2023/05/12 04:10:45;;;;;;;16.80;15.50;;;14.10;99.90;;;;;;10367695;28;20250;-81
2023/05/12 04:15:48;;;;;;;14.63;13.53;;;14.10;99.90;;;;;;10381125;28;20217;-81
2023/05/12 04:20:50;;;;;;;14.33;13.23;;;14.10;99.90;;;;;;10358635;28;20659;-81
2023/05/12 04:25:53;;;;;;;15.57;14.37;;;14.10;99.90;;;;;;10359391;28;20254;-81
2023/05/12 04:31:01;;;;;;;15.53;14.23;;;14.00;99.90;;;;;;10395800;28;20207;-80
2023/05/12 04:36:04;;;;;;;15.20;13.90;;;14.00;99.90;;;;;;10365431;28;20242;-80
2023/05/12 04:41:06;;;;;;;16.47;15.17;;;14.10;99.90;;;;;;10369919;28;20203;-82
2023/05/12 04:46:15;;;;;;;11.73;10.80;;;14.10;99.90;;;;;;10360896;28;20215;-80
2023/05/12 04:51:17;;;;;;;16.17;14.77;;;14.10;99.90;;;;;;10391263;28;20245;-79
2023/05/12 04:56:20;;;;;;;15.30;14.10;;;14.10;99.90;;;;;;10368938;28;20219;-80
2023/05/12 05:01:25;;;;;;;15.70;14.40;;;14.20;99.90;;;;;;10353173;28;20218;-79
2023/05/12 05:06:28;;;;;;;15.70;14.40;;;14.20;99.90;;;;;;10326813;28;20636;-79
2023/05/12 05:11:30;;;;;;;16.17;14.77;;;14.30;99.90;;;;;;10327733;28;20557;-79
2023/05/12 05:16:34;;;;;;;16.97;15.47;;;14.30;99.90;;;;;;10334937;28;20226;-79
2023/05/12 05:21:36;;;;;;;14.17;13.03;;;14.30;99.90;;;;;;10341680;28;20203;-78
2023/05/12 05:26:39;;;;;;;15.30;14.00;;;14.30;99.90;;;;;;10337875;28;20671;-79
2023/05/12 05:31:43;;;;;;;16.20;14.90;;;14.30;99.90;;;;;;10356808;28;20192;-79
2023/05/12 05:36:46;;;;;;;15.90;14.30;;;14.40;99.90;;;;;;10329790;28;20228;-82
2023/05/12 05:41:48;;;;;;;16.30;14.70;;;14.40;99.90;;;;;;10349704;28;20199;-81
2023/05/12 05:46:52;;;;;;;15.67;14.47;;;14.40;99.90;;;;;;10395844;28;20206;-81
2023/05/12 05:51:54;;;;;;;14.33;13.20;;;14.40;99.90;;;;;;10388344;28;20198;-81
2023/05/12 05:56:59;;;;;;;14.10;12.70;;;14.40;99.90;;;;;;10380725;28;20266;-81
2023/05/12 06:02:03;;;;;;;16.20;14.70;;;14.50;99.90;;;;;;10362043;28;20655;-80
2023/05/12 06:07:05;;;;;;;14.53;13.27;;;14.50;99.90;;;;;;10407507;28;20225;-81
2023/05/12 06:12:08;;;;;;;15.63;14.27;;;14.60;99.90;;;;;;10404341;28;20202;-81
2023/05/12 06:17:12;;;;;;;15.00;13.67;;;14.70;99.90;;;;;;10366404;28;20238;-81
2023/05/12 06:22:14;;;;;;;14.33;13.13;;;14.70;99.90;;;;;;10406307;28;20273;-80
2023/05/12 06:27:16;;;;;;;14.17;13.07;;;14.80;99.90;;;;;;10422075;28;20281;-80
2023/05/12 06:32:19;;;;;;;14.47;12.80;;;14.80;99.90;;;;;;10384278;28;20226;-80
2023/05/12 06:37:22;;;;;;;14.07;12.77;;;14.80;99.90;;;;;;10409631;28;20242;-81
2023/05/12 06:42:24;;;;;;;14.30;13.10;;;14.90;99.90;;;;;;10385349;28;20222;-81
2023/05/12 06:47:28;;;;;;;13.50;12.23;;;15.00;99.90;;;;;;10407048;28;20214;-81
2023/05/12 06:52:32;;;;;;;13.10;12.00;;;15.10;99.90;;;;;;10428450;28;20198;-81
2023/05/12 06:57:34;;;;;;;12.70;11.60;;;15.10;99.90;;;;;;10376293;28;20254;-81
2023/05/12 07:02:38;;;;;;;12.57;11.57;;;15.10;99.90;;;;;;10395416;28;20199;-82
2023/05/12 07:07:40;;;;;;;13.27;12.17;;;15.20;99.90;;;;;;10403060;28;20242;-81
2023/05/12 07:12:42;;;;;;;11.80;10.80;;;15.40;99.90;;;;;;10383272;28;20558;-82
2023/05/12 07:17:45;;;;;;;11.37;10.47;;;15.50;99.90;;;;;;10387380;28;20629;-80
2023/05/12 07:22:48;;;;;;;11.73;10.73;;;15.70;99.90;;;;;;10400146;28;20198;-81
2023/05/12 07:27:50;;;;;;;9.93;9.23;;;15.80;99.90;;;;;;10403037;28;20250;-81
2023/05/12 07:32:53;;;;;;;9.83;9.00;;;16.00;99.90;;;;;;10404167;28;20192;-82
2023/05/12 07:37:55;;;;;;;10.53;9.70;;;16.10;99.90;;;;;;10422008;28;20654;-81
2023/05/12 07:42:57;;;;;;;9.73;9.03;;;16.30;99.90;;;;;;10409647;28;20230;-81
2023/05/12 07:48:01;;;;;;;8.07;7.47;;;16.60;99.90;;;;;;10386795;28;20215;-81
2023/05/12 07:53:04;;;;;;;9.57;7.97;;;17.00;99.90;;;;;;10403357;28;20266;-82
2023/05/12 07:58:06;;;;;;;7.70;7.10;;;17.30;99.90;;;;;;10407008;28;20223;-82
2023/05/12 08:03:10;;;;;;;7.77;7.07;;;17.40;99.90;;;;;;10387195;28;20285;-81
2023/05/12 08:08:15;;;;;;;6.93;6.33;;;17.50;99.90;;;;;;10423611;28;20683;-82
2023/05/12 08:13:17;;;;;;;7.20;6.60;;;17.50;99.90;;;;;;10391239;28;20207;-81
2023/05/12 08:18:21;;;;;;;6.07;5.67;;;17.30;99.90;;;;;;10430213;28;20238;-81
2023/05/12 08:23:23;;;;;;;5.93;5.43;;;17.20;99.90;;;;;;10416907;28;20563;-81
2023/05/12 08:28:25;;;;;;;6.73;6.13;;;17.40;99.90;;;;;;10400876;28;20235;-82
2023/05/12 08:33:28;;;;;;;7.70;5.00;;;17.60;99.90;;;;;;10383700;28;20561;-82
2023/05/12 08:38:32;;;;;;;4.30;4.00;;;17.70;99.90;;;;;;10368361;28;20226;-81
2023/05/12 08:43:39;;;;;;;5.70;4.70;;;17.70;99.90;;;;;;10357033;28;20291;-82
2023/05/12 08:48:46;;;;;;;5.17;4.87;;;17.70;99.90;;;;;;10373139;28;20246;-82
2023/05/12 08:53:50;;;;;;;5.60;5.20;;;17.70;99.90;;;;;;10385755;28;20195;-82
2023/05/12 08:58:53;;;;;;;5.00;4.67;;;17.70;99.90;;;;;;10402034;28;20253;-82
2023/05/12 09:03:56;;;;;;;5.63;5.23;;;17.70;99.90;;;;;;10395317;28;20298;-82
2023/05/12 09:08:59;;;;;;;4.90;4.60;;;17.80;99.90;;;;;;10373324;28;20211;-82
2023/05/12 09:14:05;;;;;;;4.60;4.20;;;18.20;99.90;;;;;;10386337;28;20190;-83
2023/05/12 09:19:08;;;;;;;4.10;3.80;;;18.50;99.90;;;;;;10370965;28;20219;-82
2023/05/12 09:24:10;;;;;;;4.23;3.90;;;18.60;99.90;;;;;;10366276;28;20199;-82
2023/05/12 09:29:13;;;;;;;4.40;4.00;;;18.70;99.90;;;;;;10372844;28;20210;-82
2023/05/12 09:34:16;;;;;;;6.37;5.77;;;18.60;99.90;;;;;;10391608;28;20225;-82
2023/05/12 09:39:18;;;;;;;5.63;5.23;;;18.60;99.90;;;;;;10360783;28;20223;-81
2023/05/12 09:44:21;;;;;;;4.47;4.20;;;18.80;99.90;;;;;;10380358;28;20268;-81
2023/05/12 09:49:25;;;;;;;5.33;4.93;;;19.10;99.90;;;;;;10386774;28;20195;-81
2023/05/12 09:54:28;;;;;;;5.20;4.70;;;19.40;99.90;;;;;;10400224;28;20199;-81
2023/05/12 09:59:32;;;;;;;5.23;4.83;;;19.50;99.90;;;;;;10361323;28;20262;-81
2023/05/12 10:04:42;;;;;;;4.50;4.30;;;19.60;99.90;;;;;;10368549;28;20683;-81
2023/05/12 10:09:45;;;;;;;4.80;4.50;;;19.70;99.90;;;;;;10404474;28;20225;-81
2023/05/12 10:14:48;;;;;;;5.07;4.77;;;19.40;99.90;;;;;;10366985;28;20302;-82
2023/05/12 10:19:53;;;;;;;5.40;5.10;;;19.10;99.90;;;;;;10370338;28;20305;-82
2023/05/12 10:24:56;;;;;;;3.83;3.50;;;18.90;99.90;;;;;;10392127;28;20257;-82
2023/05/12 10:30:00;;;;;;;3.90;3.60;;;18.70;99.90;;;;;;10380293;28;20191;-82
2023/05/12 10:35:11;;;;;;;3.30;3.10;;;18.80;99.90;;;;;;10370260;28;20322;-82
2023/05/12 10:40:23;;;;;;;4.10;3.80;;;19.00;99.90;;;;;;10385203;28;20238;-82
2023/05/12 10:45:25;;;;;;;3.77;3.53;;;19.40;99.90;;;;;;10392138;28;20290;-82
2023/05/12 10:50:29;;;;;;;3.80;3.53;;;19.40;99.90;;;;;;10366173;28;20230;-82
2023/05/12 10:55:33;;;;;;;4.73;4.47;;;19.10;99.90;;;;;;10387059;28;20301;-83
2023/05/12 11:00:44;;;;;;;4.57;4.27;;;19.00;99.90;;;;;;10384628;28;20218;-82
2023/05/12 11:05:58;;;;;;;4.47;4.17;;;18.80;99.90;;;;;;10377184;28;20340;-82
2023/05/12 11:11:00;;;;;;;4.63;4.33;;;18.60;99.90;;;;;;10388571;28;20616;-81
2023/05/12 11:16:03;;;;;;;7.20;6.60;;;18.40;99.90;;;;;;10376782;28;20215;-81
2023/05/12 11:21:11;;;;;;;4.20;3.93;;;18.10;99.90;;;;;;10382379;28;20222;-81
2023/05/12 11:26:17;;;;;;;3.80;3.60;;;17.90;99.90;;;;;;10369834;28;20344;-82
2023/05/12 11:31:20;;;;;;;4.67;4.20;;;17.70;99.90;;;;;;10356193;28;20203;-81
2023/05/12 11:36:23;;;;;;;4.50;4.20;;;17.50;99.90;;;;;;10359210;28;20305;-82
2023/05/12 11:41:26;;;;;;;5.73;5.33;;;17.20;99.90;;;;;;10376187;28;20218;-81
2023/05/12 11:46:29;;;;;;;5.60;5.30;;;16.80;99.90;;;;;;10369108;28;20219;-82
2023/05/12 11:51:33;;;;;;;6.77;6.37;;;16.60;99.90;;;;;;10359947;28;20195;-82
2023/05/12 11:56:35;;;;;;;6.97;6.57;;;16.40;99.90;;;;;;10347572;28;20319;-82
2023/05/12 12:01:45;;;;;;;7.20;6.80;;;16.20;99.90;;;;;;10384912;28;20202;-82
2023/05/12 12:06:49;;;;;;;5.63;5.30;;;16.10;99.90;;;;;;10358579;28;20319;-82
2023/05/12 12:11:51;;;;;;;7.40;7.00;;;16.00;99.90;;;;;;10383678;28;20197;-82
2023/05/12 12:16:53;;;;;;;7.10;6.67;;;16.10;99.90;;;;;;10379619;28;20222;-82
2023/05/12 12:21:57;;;;;;;8.23;7.60;;;16.20;99.90;;;;;;10374970;28;20229;-83
2023/05/12 12:26:59;;;;;;;8.57;8.07;;;16.50;99.90;;;;;;10366072;28;20309;-82
2023/05/12 12:32:02;;;;;;;8.40;7.90;;;16.80;99.90;;;;;;10368988;28;20214;-82
2023/05/12 12:37:05;;;;;;;8.70;8.10;;;17.30;99.90;;;;;;10403850;28;20269;-82
2023/05/12 12:42:07;;;;;;;6.50;6.00;;;17.70;99.90;;;;;;10360739;28;20222;-81
2023/05/12 12:47:09;;;;;;;5.37;5.00;;;18.00;99.90;;;;;;10405776;28;20218;-83
2023/05/12 12:52:13;;;;;;;4.97;4.67;;;18.30;99.90;;;;;;10394242;28;20202;-82
2023/05/12 12:57:15;;;;;;;3.60;3.50;;;18.50;99.90;;;;;;10405153;28;20215;-81
2023/05/12 13:02:18;;;;;;;3.90;3.63;;;18.60;99.90;;;;;;10365326;28;20196;-81
2023/05/12 13:07:21;;;;;;;3.80;3.60;;;18.70;99.90;;;;;;10360138;28;20223;-82
2023/05/12 13:12:23;;;;;;;3.37;3.17;;;18.80;99.90;;;;;;10376660;28;20241;-82
2023/05/12 13:17:25;;;;;;;4.17;3.97;;;18.80;99.90;;;;;;10375047;28;20305;-82
2023/05/12 13:22:29;;;;;;;4.00;3.80;;;18.60;99.90;;;;;;10357290;28;20205;-81
2023/05/12 13:27:31;;;;;;;5.47;5.07;;;18.40;99.90;;;;;;10359272;28;20221;-83
2023/05/12 13:32:34;;;;;;;4.80;4.50;;;18.20;99.90;;;;;;10379383;28;20201;-82
2023/05/12 13:37:37;;;;;;;5.70;4.67;;;18.10;99.90;;;;;;10401666;28;20241;-82
2023/05/12 13:42:39;;;;;;;4.63;4.40;;;18.00;99.90;;;;;;10379125;28;20265;-82
2023/05/12 13:47:41;;;;;;;4.50;4.20;;;17.90;99.90;;;;;;10378988;28;20214;-81
2023/05/12 13:52:46;;;;;;;5.63;5.13;;;17.90;99.90;;;;;;10383403;28;20207;-81
2023/05/12 13:57:48;;;;;;;5.10;4.80;;;17.80;99.90;;;;;;10342249;28;20254;-80
2023/05/12 14:02:50;;;;;;;5.43;4.90;;;17.90;99.90;;;;;;10374249;28;20282;-80
2023/05/12 14:07:54;;;;;;;6.07;5.67;;;17.90;99.90;;;;;;10396465;28;20635;-81
2023/05/12 14:12:56;;;;;;;7.57;7.07;;;17.80;99.90;;;;;;10364393;28;20206;-80
2023/05/12 14:17:58;;;;;;;7.70;7.10;;;17.80;99.90;;;;;;10377977;28;20211;-80
2023/05/12 14:23:02;;;;;;;7.50;7.00;;;17.90;99.90;;;;;;10387166;28;20203;-80
2023/05/12 14:28:04;;;;;;;6.70;6.20;;;17.90;99.90;;;;;;10378865;28;20206;-81
2023/05/12 14:33:06;;;;;;;6.80;6.40;;;18.00;99.90;;;;;;10388092;28;20199;-81
2023/05/12 14:38:09;;;;;;;6.63;6.03;;;18.10;99.90;;;;;;10362959;28;20375;-82
2023/05/12 14:43:11;;;;;;;6.83;6.43;;;18.20;99.90;;;;;;10404791;28;20195;-80
2023/05/12 14:48:13;;;;;;;6.40;6.00;;;18.30;99.90;;;;;;10376740;28;20215;-80
2023/05/12 14:53:17;;;;;;;7.40;6.90;;;18.20;99.90;;;;;;10406474;28;20198;-81
2023/05/12 14:58:20;;;;;;;7.03;6.43;;;18.20;99.90;;;;;;10380410;28;20269;-80
2023/05/12 15:03:22;;;;;;;6.70;6.30;;;18.10;99.90;;;;;;10393462;28;20199;-80
2023/05/12 15:08:25;;;;;;;7.13;6.63;;;17.90;99.90;;;;;;10388925;28;20211;-83
2023/05/12 15:13:28;;;;;;;7.40;6.77;;;17.80;99.90;;;;;;10393590;28;20229;-80
2023/05/12 15:18:30;;;;;;;5.97;5.43;;;17.70;99.90;;;;;;10386023;28;20580;-81
2023/05/12 15:23:34;;;;;;;6.67;6.07;;;17.70;99.90;;;;;;10368522;28;20200;-81
2023/05/12 15:28:37;;;;;;;6.60;6.20;;;17.70;99.90;;;;;;10378117;28;20313;-82
2023/05/12 15:33:42;;;;;;;6.40;5.97;;;17.60;99.90;;;;;;10366916;28;20261;-82
2023/05/12 15:38:47;;;;;;;6.47;5.97;;;17.70;99.90;;;;;;10374527;23;20223;-79
2023/05/12 15:43:49;;;;;;;6.20;5.80;;;17.70;99.90;;;;;;10369005;28;20208;-81
2023/05/12 15:48:51;;;;;;;6.40;5.90;;;17.70;99.90;;;;;;10343843;28;20686;-80
2023/05/12 15:53:54;;;;;;;6.40;5.97;;;17.70;99.90;;;;;;10337319;28;20223;-81
2023/05/12 15:58:56;;;;;;;6.73;6.00;;;17.70;99.90;;;;;;10348586;28;20231;-80
2023/05/12 16:03:58;;;;;;;5.20;4.90;;;17.70;99.90;;;;;;10338094;28;20203;-80
2023/05/12 16:09:02;;;;;;;4.17;3.97;;;17.70;99.90;;;;;;10341241;28;20635;-81
2023/05/12 16:14:04;;;;;;;4.60;4.40;;;17.60;99.90;;;;;;10343210;28;20238;-80
2023/05/12 16:19:07;;;;;;;4.87;4.40;;;17.50;99.90;;;;;;10332044;28;20596;-81
2023/05/12 16:24:11;;;;;;;7.20;5.10;;;17.50;99.90;;;;;;10328408;28;20215;-80
2023/05/12 16:29:13;;;;;;;5.20;4.60;;;17.40;99.90;;;;;;10313868;28;20292;-81
2023/05/12 16:34:15;;;;;;;6.20;5.80;;;17.40;99.90;;;;;;10308675;28;20629;-80
2023/05/12 16:39:18;;;;;;;5.40;5.00;;;17.30;99.90;;;;;;10351851;28;20220;-80
2023/05/12 16:44:20;;;;;;;6.70;6.10;;;17.20;99.90;;;;;;10324064;28;20208;-81
2023/05/12 16:49:22;;;;;;;5.63;5.33;;;17.20;99.90;;;;;;10347772;28;20233;-80
2023/05/12 16:54:27;;;;;;;6.10;5.70;;;17.10;99.90;;;;;;10344931;28;20671;-80
2023/05/12 16:59:31;;;;;;;5.60;5.30;;;17.00;99.90;;;;;;10309543;28;20321;-81
2023/05/12 17:04:33;;;;;;;5.50;5.13;;;16.90;99.90;;;;;;10333098;28;20274;-81
2023/05/12 17:09:36;;;;;;;5.57;5.27;;;16.90;99.90;;;;;;10332626;28;20211;-81
2023/05/12 17:14:38;;;;;;;4.87;4.60;;;16.80;99.90;;;;;;10349204;28;20198;-81
2023/05/12 17:19:40;;;;;;;5.30;5.00;;;16.80;99.90;;;;;;10350823;28;20233;-81
2023/05/12 17:24:44;;;;;;;4.97;4.67;;;16.70;99.90;;;;;;10369522;28;20670;-80
2023/05/12 17:29:46;;;;;;;6.03;4.97;;;16.70;99.90;;;;;;10362078;28;20219;-81
2023/05/12 17:34:49;;;;;;;5.00;4.70;;;16.80;99.90;;;;;;10320781;28;20630;-81
2023/05/12 17:39:53;;;;;;;4.50;4.20;;;16.80;99.90;;;;;;10346603;28;20219;-78
2023/05/12 17:44:56;;;;;;;4.90;4.70;;;16.80;99.90;;;;;;10374229;28;20607;-80
2023/05/12 17:49:58;;;;;;;5.30;5.00;;;16.70;99.90;;;;;;10353546;28;20586;-80
2023/05/12 17:55:01;;;;;;;5.67;5.27;;;16.70;99.90;;;;;;10317626;28;20220;-78
2023/05/12 18:00:08;;;;;;;7.60;7.00;;;16.70;99.90;;;;;;10344146;28;20242;-80
2023/05/12 18:05:16;;;;;;;5.03;4.70;;;16.70;99.90;;;;;;10374190;28;20203;-80
2023/05/12 18:10:19;;;;;;;5.80;5.40;;;16.60;99.90;;;;;;10316101;28;20200;-78
2023/05/12 18:15:23;;;;;;;5.10;4.80;;;16.60;99.90;;;;;;10358674;28;20227;-78
2023/05/12 18:20:25;;;;;;;5.60;5.30;;;16.60;99.90;;;;;;10355111;28;20322;-79
2023/05/12 18:25:29;;;;;;;6.07;5.67;;;16.50;99.90;;;;;;10372064;28;20200;-81
2023/05/12 18:30:31;;;;;;;5.83;5.53;;;16.40;99.90;;;;;;10351607;28;20188;-80
2023/05/12 18:35:34;;;;;;;6.00;5.50;;;16.40;99.90;;;;;;10339259;28;20642;-79
2023/05/12 18:40:39;;;;;;;5.50;5.10;;;16.30;99.90;;;;;;10308300;28;20233;-80
2023/05/12 18:45:41;;;;;;;5.83;5.43;;;16.30;99.90;;;;;;10340468;28;20582;-79
2023/05/12 18:50:43;;;;;;;5.97;5.50;;;16.20;99.90;;;;;;10325102;28;20219;-78
2023/05/12 18:55:48;;;;;;;5.30;5.00;;;16.20;99.90;;;;;;10318241;28;20228;-79
2023/05/12 19:00:50;;;;;;;5.03;4.73;;;16.10;99.90;;;;;;10337633;28;20219;-79
2023/05/12 19:05:52;;;;;;;4.50;4.30;;;16.10;99.90;;;;;;10355440;28;20215;-78
2023/05/12 19:10:56;;;;;;;5.03;4.73;;;16.10;99.90;;;;;;10359103;28;20272;-80
2023/05/12 19:15:58;;;;;;;3.60;3.40;;;16.00;99.90;;;;;;10303333;28;20254;-79
2023/05/12 19:21:01;;;;;;;4.07;3.83;;;16.00;99.90;;;;;;10309482;28;20220;-78
2023/05/12 19:26:06;;;;;;;4.00;3.80;;;15.90;99.90;;;;;;10357741;28;20215;-79
2023/05/12 19:31:08;;;;;;;3.50;3.30;;;15.90;99.90;;;;;;10358178;28;20195;-79
2023/05/12 19:36:11;;;;;;;4.37;4.07;;;15.90;99.90;;;;;;10322387;28;20231;-78
2023/05/12 19:41:14;;;;;;;4.10;3.90;;;15.90;99.90;;;;;;10297053;28;20315;-79
2023/05/12 19:46:16;;;;;;;4.07;3.60;;;15.80;99.90;;;;;;10296874;28;20224;-79
2023/05/12 19:51:18;;;;;;;3.87;3.67;;;15.80;99.90;;;;;;10294518;28;20212;-78
2023/05/12 19:56:22;;;;;;;3.77;3.57;;;15.80;99.90;;;;;;10376534;28;20634;-79
2023/05/12 20:01:24;;;;;;;4.73;3.67;;;15.80;99.90;;;;;;10358328;28;20223;-78
2023/05/12 20:06:26;;;;;;;3.10;2.90;;;15.80;99.90;;;;;;10338058;28;20227;-79
2023/05/12 20:11:30;;;;;;;4.17;3.87;;;15.80;99.90;;;;;;10328385;28;20234;-78
2023/05/12 20:16:32;;;;;;;4.03;3.83;;;15.70;99.90;;;;;;10372511;28;20231;-80
2023/05/12 20:21:34;;;;;;;2.90;2.80;;;15.70;99.90;;;;;;10341511;28;20229;-81
2023/05/12 20:26:37;;;;;;;3.43;3.23;;;15.70;99.90;;;;;;10349804;28;20215;-81
2023/05/12 20:31:40;;;;;;;3.50;3.30;;;15.70;99.90;;;;;;10361669;28;20190;-80
2023/05/12 20:36:42;;;;;;;3.33;3.17;;;15.60;99.90;;;;;;10344884;28;20250;-80
2023/05/12 20:41:46;;;;;;;4.63;4.33;;;15.60;99.90;;;;;;10327060;28;20214;-79
2023/05/12 20:46:48;;;;;;;3.30;3.10;;;15.60;99.90;;;;;;10354897;28;20311;-80
2023/05/12 20:51:50;;;;;;;3.47;3.27;;;15.60;99.90;;;;;;10374913;28;20586;-79
2023/05/12 20:56:54;;;;;;;4.90;3.07;;;15.60;99.90;;;;;;10313532;28;20665;-79
2023/05/12 21:01:56;;;;;;;3.37;3.17;;;15.60;99.90;;;;;;10343897;28;20223;-79
2023/05/12 21:06:58;;;;;;;3.63;3.43;;;15.50;99.90;;;;;;10374716;28;20266;-79
2023/05/12 21:12:02;;;;;;;3.20;3.10;;;15.50;99.90;;;;;;10378445;28;20195;-79
2023/05/12 21:17:04;;;;;;;3.70;3.40;;;15.50;99.90;;;;;;10346424;28;20278;-80
2023/05/12 21:22:07;;;;;;;3.53;3.33;;;15.40;99.90;;;;;;10367098;28;20314;-80
2023/05/12 21:27:11;;;;;;;3.80;3.50;;;15.40;99.90;;;;;;10382552;28;20335;-80
2023/05/12 21:32:13;;;;;;;3.27;3.17;;;15.30;99.90;;;;;;10341013;28;20264;-80
2023/05/12 21:37:15;;;;;;;3.40;3.20;;;15.30;99.90;;;;;;10338092;28;20224;-80
2023/05/12 21:42:18;;;;;;;4.30;4.10;;;15.20;99.90;;;;;;10374777;28;20719;-80
2023/05/12 21:47:20;;;;;;;4.50;4.17;;;15.10;99.90;;;;;;10381967;28;20240;-80
2023/05/12 21:52:23;;;;;;;4.70;4.40;;;15.10;99.90;;;;;;10357963;28;20203;-80
2023/05/12 21:57:26;;;;;;;3.90;3.70;;;15.10;99.90;;;;;;10373658;28;20269;-80
2023/05/12 22:02:28;;;;;;;4.60;4.33;;;15.00;99.90;;;;;;10339910;28;20702;-79
2023/05/12 22:07:31;;;;;;;3.97;3.77;;;15.00;99.90;;;;;;10337680;28;20216;-78
2023/05/12 22:12:34;;;;;;;4.37;4.00;;;15.00;99.90;;;;;;10368458;28;20540;-78
2023/05/12 22:17:36;;;;;;;4.10;3.90;;;15.00;99.90;;;;;;10356285;28;20706;-79
2023/05/12 22:22:38;;;;;;;4.20;4.00;;;15.10;99.90;;;;;;10367817;28;20239;-78
2023/05/12 22:27:42;;;;;;;4.40;4.13;;;15.10;99.90;;;;;;10365376;28;20230;-78
2023/05/12 22:32:44;;;;;;;3.83;3.63;;;15.10;99.90;;;;;;10354198;28;20196;-79
2023/05/12 22:37:46;;;;;;;4.60;4.30;;;15.10;99.90;;;;;;10355816;28;20227;-81
2023/05/12 22:42:50;;;;;;;4.70;4.40;;;15.10;99.90;;;;;;10341423;28;20211;-82
2023/05/12 22:47:52;;;;;;;4.77;4.40;;;15.10;99.90;;;;;;10358239;28;20219;-82
2023/05/12 22:52:56;;;;;;;4.33;4.13;;;15.10;99.90;;;;;;10327404;28;20544;-81
2023/05/12 22:58:00;;;;;;;4.50;4.10;;;15.10;99.90;;;;;;10360852;28;20219;-81
2023/05/12 23:03:02;;;;;;;5.23;4.83;;;15.10;99.90;;;;;;10350704;28;20294;-81
2023/05/12 23:08:04;;;;;;;4.00;3.70;;;15.10;99.90;;;;;;10355816;28;20230;-80
2023/05/12 23:13:07;;;;;;;4.67;4.37;;;15.10;99.90;;;;;;10371240;28;20192;-81
2023/05/12 23:18:10;;;;;;;4.53;4.30;;;15.10;99.90;;;;;;10338975;28;20221;-82
2023/05/12 23:23:12;;;;;;;5.80;4.33;;;15.10;99.90;;;;;;10362073;28;20223;-82
2023/05/12 23:28:15;;;;;;;5.00;4.70;;;15.00;99.90;;;;;;10357652;28;20219;-82
2023/05/12 23:33:17;;;;;;;4.57;4.27;;;15.00;99.90;;;;;;10356663;28;20254;-79
2023/05/12 23:38:19;;;;;;;4.93;4.57;;;15.00;99.90;;;;;;10350489;28;20767;-80
2023/05/12 23:43:23;;;;;;;5.90;5.50;;;14.90;99.90;;;;;;10367958;28;20219;-81
2023/05/12 23:48:25;;;;;;;5.40;5.00;;;14.90;99.90;;;;;;10357116;28;20220;-79
2023/05/12 23:53:27;;;;;;;4.80;4.50;;;14.90;99.90;;;;;;10348861;28;20538;-83
2023/05/12 23:58:30;;;;;;;5.10;4.80;;;14.90;99.90;;;;;;10347574;28;20226;-78
